sensor_id;sensor_type;location;lat;lon;timestamp;P1;durP1;ratioP1;P2;durP2;ratioP2
27408;SDS011;20413;50.782;7.152;2023-02-03T00:01:00;11.95;;;4.82;;
27408;SDS011;20413;50.782;7.152;2023-02-03T00:03:26;11.10;;;4.93;;
27408;SDS011;20413;50.782;7.152;2023-02-03T00:05:52;7.53;;;4.63;;
27408;SDS011;20413;50.782;7.152;2023-02-03T00:08:19;11.05;;;4.72;;
27408;SDS011;20413;50.782;7.152;2023-02-03T00:10:46;7.72;;;4.50;;
27408;SDS011;20413;50.782;7.152;2023-02-03T00:13:12;11.85;;;5.30;;
27408;SDS011;20413;50.782;7.152;2023-02-03T00:15:38;8.20;;;4.15;;
27408;SDS011;20413;50.782;7.152;2023-02-03T00:18:04;14.30;;;4.60;;
27408;SDS011;20413;50.782;7.152;2023-02-03T00:20:30;4.57;;;3.78;;
27408;SDS011;20413;50.782;7.152;2023-02-03T00:23:04;12.07;;;4.97;;
27408;SDS011;20413;50.782;7.152;2023-02-03T00:25:30;6.25;;;3.63;;
27408;SDS011;20413;50.782;7.152;2023-02-03T00:27:56;8.50;;;4.15;;
27408;SDS011;20413;50.782;7.152;2023-02-03T00:30:22;12.13;;;4.20;;
27408;SDS011;20413;50.782;7.152;2023-02-03T00:32:48;9.52;;;3.75;;
27408;SDS011;20413;50.782;7.152;2023-02-03T00:35:14;10.23;;;4.05;;
27408;SDS011;20413;50.782;7.152;2023-02-03T00:37:40;6.65;;;3.83;;
27408;SDS011;20413;50.782;7.152;2023-02-03T00:40:06;10.30;;;4.00;;
27408;SDS011;20413;50.782;7.152;2023-02-03T00:42:35;8.68;;;3.60;;
27408;SDS011;20413;50.782;7.152;2023-02-03T00:45:01;8.45;;;3.75;;
27408;SDS011;20413;50.782;7.152;2023-02-03T00:47:27;7.35;;;3.42;;
27408;SDS011;20413;50.782;7.152;2023-02-03T00:49:53;8.75;;;3.47;;
27408;SDS011;20413;50.782;7.152;2023-02-03T00:52:19;11.48;;;4.05;;
27408;SDS011;20413;50.782;7.152;2023-02-03T00:54:45;13.93;;;3.70;;
27408;SDS011;20413;50.782;7.152;2023-02-03T00:57:11;6.28;;;3.47;;
27408;SDS011;20413;50.782;7.152;2023-02-03T00:59:37;5.28;;;3.20;;
27408;SDS011;20413;50.782;7.152;2023-02-03T01:02:03;9.27;;;3.08;;
27408;SDS011;20413;50.782;7.152;2023-02-03T01:04:29;7.72;;;3.30;;
27408;SDS011;20413;50.782;7.152;2023-02-03T01:06:55;7.47;;;3.67;;
27408;SDS011;20413;50.782;7.152;2023-02-03T01:09:23;9.20;;;3.50;;
27408;SDS011;20413;50.782;7.152;2023-02-03T01:11:49;12.38;;;3.25;;
27408;SDS011;20413;50.782;7.152;2023-02-03T01:14:15;6.88;;;3.17;;
27408;SDS011;20413;50.782;7.152;2023-02-03T01:16:41;9.75;;;3.35;;
27408;SDS011;20413;50.782;7.152;2023-02-03T01:19:07;7.43;;;2.65;;
27408;SDS011;20413;50.782;7.152;2023-02-03T01:21:33;4.63;;;2.72;;
27408;SDS011;20413;50.782;7.152;2023-02-03T01:24:00;11.55;;;3.05;;
27408;SDS011;20413;50.782;7.152;2023-02-03T01:26:26;10.88;;;2.92;;
27408;SDS011;20413;50.782;7.152;2023-02-03T01:28:53;8.52;;;2.92;;
27408;SDS011;20413;50.782;7.152;2023-02-03T01:31:21;9.70;;;2.50;;
27408;SDS011;20413;50.782;7.152;2023-02-03T01:33:48;5.85;;;2.60;;
27408;SDS011;20413;50.782;7.152;2023-02-03T01:36:14;8.05;;;2.60;;
27408;SDS011;20413;50.782;7.152;2023-02-03T01:38:41;7.90;;;2.50;;
27408;SDS011;20413;50.782;7.152;2023-02-03T01:41:09;6.00;;;2.30;;
27408;SDS011;20413;50.782;7.152;2023-02-03T01:43:37;5.75;;;2.70;;
27408;SDS011;20413;50.782;7.152;2023-02-03T01:46:06;11.55;;;2.42;;
27408;SDS011;20413;50.782;7.152;2023-02-03T01:48:37;5.35;;;2.50;;
27408;SDS011;20413;50.782;7.152;2023-02-03T01:51:03;4.82;;;2.33;;
27408;SDS011;20413;50.782;7.152;2023-02-03T01:53:29;11.95;;;2.83;;
27408;SDS011;20413;50.782;7.152;2023-02-03T01:55:56;9.10;;;2.45;;
27408;SDS011;20413;50.782;7.152;2023-02-03T01:58:24;4.80;;;2.05;;
27408;SDS011;20413;50.782;7.152;2023-02-03T02:03:20;5.35;;;2.10;;
27408;SDS011;20413;50.782;7.152;2023-02-03T02:05:49;8.77;;;2.50;;
27408;SDS011;20413;50.782;7.152;2023-02-03T02:08:17;3.60;;;2.20;;
27408;SDS011;20413;50.782;7.152;2023-02-03T02:10:46;4.43;;;2.17;;
27408;SDS011;20413;50.782;7.152;2023-02-03T02:13:12;8.73;;;2.50;;
27408;SDS011;20413;50.782;7.152;2023-02-03T02:26:11;5.03;;;2.53;;
27408;SDS011;20413;50.782;7.152;2023-02-03T02:38:48;8.70;;;2.10;;
27408;SDS011;20413;50.782;7.152;2023-02-03T02:41:22;6.88;;;2.00;;
27408;SDS011;20413;50.782;7.152;2023-02-03T02:43:53;6.50;;;2.30;;
27408;SDS011;20413;50.782;7.152;2023-02-03T02:46:36;8.07;;;2.22;;
27408;SDS011;20413;50.782;7.152;2023-02-03T02:49:49;4.57;;;1.88;;
27408;SDS011;20413;50.782;7.152;2023-02-03T02:51:48;4.68;;;1.88;;
27408;SDS011;20413;50.782;7.152;2023-02-03T02:54:16;3.58;;;1.83;;
27408;SDS011;20413;50.782;7.152;2023-02-03T02:56:43;8.25;;;2.20;;
27408;SDS011;20413;50.782;7.152;2023-02-03T02:59:10;4.97;;;1.50;;
27408;SDS011;20413;50.782;7.152;2023-02-03T03:01:37;3.40;;;1.75;;
27408;SDS011;20413;50.782;7.152;2023-02-03T03:04:05;9.00;;;3.50;;
27408;SDS011;20413;50.782;7.152;2023-02-03T03:06:43;4.68;;;1.90;;
27408;SDS011;20413;50.782;7.152;2023-02-03T03:09:20;4.45;;;1.75;;
27408;SDS011;20413;50.782;7.152;2023-02-03T03:11:51;5.43;;;1.95;;
27408;SDS011;20413;50.782;7.152;2023-02-03T03:14:19;5.50;;;1.95;;
27408;SDS011;20413;50.782;7.152;2023-02-03T03:16:58;7.47;;;2.00;;
27408;SDS011;20413;50.782;7.152;2023-02-03T03:19:26;6.03;;;1.88;;
27408;SDS011;20413;50.782;7.152;2023-02-03T03:21:55;4.28;;;1.70;;
27408;SDS011;20413;50.782;7.152;2023-02-03T03:24:24;6.60;;;1.60;;
27408;SDS011;20413;50.782;7.152;2023-02-03T03:26:52;2.70;;;1.50;;
27408;SDS011;20413;50.782;7.152;2023-02-03T03:29:25;5.75;;;1.85;;
27408;SDS011;20413;50.782;7.152;2023-02-03T03:31:53;5.18;;;2.03;;
27408;SDS011;20413;50.782;7.152;2023-02-03T03:34:19;5.93;;;1.77;;
27408;SDS011;20413;50.782;7.152;2023-02-03T03:42:00;3.35;;;1.90;;
27408;SDS011;20413;50.782;7.152;2023-02-03T03:44:38;3.38;;;1.42;;
27408;SDS011;20413;50.782;7.152;2023-02-03T03:47:11;4.72;;;2.38;;
27408;SDS011;20413;50.782;7.152;2023-02-03T03:49:39;5.68;;;1.92;;
27408;SDS011;20413;50.782;7.152;2023-02-03T03:52:07;6.30;;;1.93;;
27408;SDS011;20413;50.782;7.152;2023-02-03T03:54:34;4.80;;;1.73;;
27408;SDS011;20413;50.782;7.152;2023-02-03T03:57:36;5.20;;;1.73;;
27408;SDS011;20413;50.782;7.152;2023-02-03T03:59:54;5.95;;;1.85;;
27408;SDS011;20413;50.782;7.152;2023-02-03T04:02:20;4.72;;;1.58;;
27408;SDS011;20413;50.782;7.152;2023-02-03T04:04:47;4.65;;;1.80;;
27408;SDS011;20413;50.782;7.152;2023-02-03T04:07:14;4.35;;;1.60;;
27408;SDS011;20413;50.782;7.152;2023-02-03T04:09:40;7.60;;;2.42;;
27408;SDS011;20413;50.782;7.152;2023-02-03T04:12:22;5.30;;;1.95;;
27408;SDS011;20413;50.782;7.152;2023-02-03T04:14:48;6.32;;;2.28;;
27408;SDS011;20413;50.782;7.152;2023-02-03T04:17:14;5.03;;;2.08;;
27408;SDS011;20413;50.782;7.152;2023-02-03T04:19:43;6.40;;;1.90;;
27408;SDS011;20413;50.782;7.152;2023-02-03T04:22:09;5.85;;;2.30;;
27408;SDS011;20413;50.782;7.152;2023-02-03T04:24:35;4.88;;;2.08;;
27408;SDS011;20413;50.782;7.152;2023-02-03T04:27:01;4.60;;;1.67;;
27408;SDS011;20413;50.782;7.152;2023-02-03T04:29:27;6.10;;;2.17;;
27408;SDS011;20413;50.782;7.152;2023-02-03T04:31:53;5.15;;;1.90;;
27408;SDS011;20413;50.782;7.152;2023-02-03T04:34:19;6.45;;;2.10;;
27408;SDS011;20413;50.782;7.152;2023-02-03T04:36:45;9.32;;;2.20;;
27408;SDS011;20413;50.782;7.152;2023-02-03T04:39:11;6.97;;;2.15;;
27408;SDS011;20413;50.782;7.152;2023-02-03T04:41:37;4.97;;;1.60;;
27408;SDS011;20413;50.782;7.152;2023-02-03T04:44:03;6.00;;;1.92;;
27408;SDS011;20413;50.782;7.152;2023-02-03T04:46:29;5.57;;;2.03;;
27408;SDS011;20413;50.782;7.152;2023-02-03T04:48:55;5.15;;;1.70;;
27408;SDS011;20413;50.782;7.152;2023-02-03T04:51:21;6.72;;;1.60;;
27408;SDS011;20413;50.782;7.152;2023-02-03T04:53:47;5.88;;;1.60;;
27408;SDS011;20413;50.782;7.152;2023-02-03T04:56:13;5.63;;;2.00;;
27408;SDS011;20413;50.782;7.152;2023-02-03T04:58:40;9.52;;;1.88;;
27408;SDS011;20413;50.782;7.152;2023-02-03T05:01:06;4.95;;;1.58;;
27408;SDS011;20413;50.782;7.152;2023-02-03T05:03:33;3.35;;;1.65;;
27408;SDS011;20413;50.782;7.152;2023-02-03T05:05:59;7.50;;;1.70;;
27408;SDS011;20413;50.782;7.152;2023-02-03T05:08:25;7.40;;;1.48;;
27408;SDS011;20413;50.782;7.152;2023-02-03T05:10:50;4.97;;;1.50;;
27408;SDS011;20413;50.782;7.152;2023-02-03T05:13:16;7.82;;;1.60;;
27408;SDS011;20413;50.782;7.152;2023-02-03T05:15:42;5.70;;;1.33;;
27408;SDS011;20413;50.782;7.152;2023-02-03T05:18:08;5.85;;;1.48;;
27408;SDS011;20413;50.782;7.152;2023-02-03T05:20:34;6.10;;;1.60;;
27408;SDS011;20413;50.782;7.152;2023-02-03T05:23:00;8.20;;;1.33;;
27408;SDS011;20413;50.782;7.152;2023-02-03T05:25:26;3.83;;;1.40;;
27408;SDS011;20413;50.782;7.152;2023-02-03T05:27:52;3.75;;;1.55;;
27408;SDS011;20413;50.782;7.152;2023-02-03T05:30:18;5.60;;;1.27;;
27408;SDS011;20413;50.782;7.152;2023-02-03T05:32:44;6.78;;;1.90;;
27408;SDS011;20413;50.782;7.152;2023-02-03T05:35:10;6.80;;;1.60;;
27408;SDS011;20413;50.782;7.152;2023-02-03T05:37:36;9.30;;;1.48;;
27408;SDS011;20413;50.782;7.152;2023-02-03T05:40:02;7.25;;;1.55;;
27408;SDS011;20413;50.782;7.152;2023-02-03T05:42:47;1.50;;;1.30;;
27408;SDS011;20413;50.782;7.152;2023-02-03T05:45:13;6.55;;;1.35;;
27408;SDS011;20413;50.782;7.152;2023-02-03T05:47:39;5.50;;;1.48;;
27408;SDS011;20413;50.782;7.152;2023-02-03T05:50:05;8.35;;;1.63;;
27408;SDS011;20413;50.782;7.152;2023-02-03T05:52:31;3.15;;;1.50;;
27408;SDS011;20413;50.782;7.152;2023-02-03T05:54:57;6.07;;;1.45;;
27408;SDS011;20413;50.782;7.152;2023-02-03T05:57:23;3.97;;;1.30;;
27408;SDS011;20413;50.782;7.152;2023-02-03T05:59:49;3.75;;;1.27;;
27408;SDS011;20413;50.782;7.152;2023-02-03T06:02:15;4.45;;;1.48;;
27408;SDS011;20413;50.782;7.152;2023-02-03T06:04:41;7.20;;;1.60;;
27408;SDS011;20413;50.782;7.152;2023-02-03T06:07:07;9.10;;;1.58;;
27408;SDS011;20413;50.782;7.152;2023-02-03T06:09:34;5.68;;;1.40;;
27408;SDS011;20413;50.782;7.152;2023-02-03T06:12:00;6.95;;;1.45;;
27408;SDS011;20413;50.782;7.152;2023-02-03T06:14:26;3.60;;;1.20;;
27408;SDS011;20413;50.782;7.152;2023-02-03T06:16:52;9.27;;;1.73;;
27408;SDS011;20413;50.782;7.152;2023-02-03T06:19:18;5.07;;;1.80;;
27408;SDS011;20413;50.782;7.152;2023-02-03T06:21:44;3.60;;;1.08;;
27408;SDS011;20413;50.782;7.152;2023-02-03T06:24:10;7.38;;;1.27;;
27408;SDS011;20413;50.782;7.152;2023-02-03T06:26:36;8.93;;;1.70;;
27408;SDS011;20413;50.782;7.152;2023-02-03T06:29:02;5.07;;;1.05;;
27408;SDS011;20413;50.782;7.152;2023-02-03T06:31:28;5.82;;;1.45;;
27408;SDS011;20413;50.782;7.152;2023-02-03T06:33:54;4.32;;;1.30;;
27408;SDS011;20413;50.782;7.152;2023-02-03T06:36:21;4.88;;;1.17;;
27408;SDS011;20413;50.782;7.152;2023-02-03T06:38:47;5.85;;;1.10;;
27408;SDS011;20413;50.782;7.152;2023-02-03T06:41:13;8.50;;;1.45;;
27408;SDS011;20413;50.782;7.152;2023-02-03T06:43:39;5.10;;;1.27;;
27408;SDS011;20413;50.782;7.152;2023-02-03T06:46:05;5.40;;;1.10;;
27408;SDS011;20413;50.782;7.152;2023-02-03T06:48:31;7.63;;;1.63;;
27408;SDS011;20413;50.782;7.152;2023-02-03T06:50:57;5.68;;;1.13;;
27408;SDS011;20413;50.782;7.152;2023-02-03T06:53:23;5.80;;;1.23;;
27408;SDS011;20413;50.782;7.152;2023-02-03T06:55:49;4.70;;;1.58;;
27408;SDS011;20413;50.782;7.152;2023-02-03T06:58:15;6.13;;;1.30;;
27408;SDS011;20413;50.782;7.152;2023-02-03T07:00:41;3.10;;;1.10;;
27408;SDS011;20413;50.782;7.152;2023-02-03T07:03:07;3.83;;;1.23;;
27408;SDS011;20413;50.782;7.152;2023-02-03T07:05:33;7.10;;;1.00;;
27408;SDS011;20413;50.782;7.152;2023-02-03T07:08:00;6.82;;;1.30;;
27408;SDS011;20413;50.782;7.152;2023-02-03T07:10:26;6.65;;;1.98;;
27408;SDS011;20413;50.782;7.152;2023-02-03T07:12:52;2.80;;;1.20;;
27408;SDS011;20413;50.782;7.152;2023-02-03T07:15:18;3.75;;;0.98;;
27408;SDS011;20413;50.782;7.152;2023-02-03T07:17:45;4.20;;;1.33;;
27408;SDS011;20413;50.782;7.152;2023-02-03T07:20:18;8.57;;;1.33;;
27408;SDS011;20413;50.782;7.152;2023-02-03T07:22:44;3.40;;;1.25;;
27408;SDS011;20413;50.782;7.152;2023-02-03T07:25:11;4.47;;;1.05;;
27408;SDS011;20413;50.782;7.152;2023-02-03T07:27:37;3.60;;;0.95;;
27408;SDS011;20413;50.782;7.152;2023-02-03T07:30:03;3.33;;;1.10;;
27408;SDS011;20413;50.782;7.152;2023-02-03T07:32:29;5.82;;;1.15;;
27408;SDS011;20413;50.782;7.152;2023-02-03T07:34:55;6.63;;;1.10;;
27408;SDS011;20413;50.782;7.152;2023-02-03T07:37:21;4.43;;;1.35;;
27408;SDS011;20413;50.782;7.152;2023-02-03T07:39:47;6.43;;;1.00;;
27408;SDS011;20413;50.782;7.152;2023-02-03T07:42:13;7.35;;;1.50;;
27408;SDS011;20413;50.782;7.152;2023-02-03T07:44:39;4.90;;;0.82;;
27408;SDS011;20413;50.782;7.152;2023-02-03T07:47:05;8.20;;;1.85;;
27408;SDS011;20413;50.782;7.152;2023-02-03T07:49:31;7.00;;;1.27;;
27408;SDS011;20413;50.782;7.152;2023-02-03T07:51:57;8.77;;;1.42;;
27408;SDS011;20413;50.782;7.152;2023-02-03T07:54:23;5.25;;;0.88;;
27408;SDS011;20413;50.782;7.152;2023-02-03T07:56:49;4.05;;;0.90;;
27408;SDS011;20413;50.782;7.152;2023-02-03T07:59:15;5.80;;;1.10;;
27408;SDS011;20413;50.782;7.152;2023-02-03T08:01:41;3.55;;;1.27;;
27408;SDS011;20413;50.782;7.152;2023-02-03T08:04:07;6.50;;;1.08;;
27408;SDS011;20413;50.782;7.152;2023-02-03T08:06:35;4.20;;;1.10;;
27408;SDS011;20413;50.782;7.152;2023-02-03T08:09:01;4.68;;;1.20;;
27408;SDS011;20413;50.782;7.152;2023-02-03T08:11:27;3.42;;;0.80;;
27408;SDS011;20413;50.782;7.152;2023-02-03T08:13:53;5.85;;;0.85;;
27408;SDS011;20413;50.782;7.152;2023-02-03T08:16:18;9.48;;;0.95;;
27408;SDS011;20413;50.782;7.152;2023-02-03T08:18:45;5.25;;;1.33;;
27408;SDS011;20413;50.782;7.152;2023-02-03T08:21:10;3.85;;;0.90;;
27408;SDS011;20413;50.782;7.152;2023-02-03T08:23:36;1.83;;;1.00;;
27408;SDS011;20413;50.782;7.152;2023-02-03T08:26:03;1.58;;;0.60;;
27408;SDS011;20413;50.782;7.152;2023-02-03T08:28:29;3.13;;;0.60;;
27408;SDS011;20413;50.782;7.152;2023-02-03T08:30:55;3.28;;;0.60;;
27408;SDS011;20413;50.782;7.152;2023-02-03T08:33:21;1.63;;;0.57;;
27408;SDS011;20413;50.782;7.152;2023-02-03T08:35:47;3.08;;;0.82;;
27408;SDS011;20413;50.782;7.152;2023-02-03T08:38:14;3.13;;;0.88;;
27408;SDS011;20413;50.782;7.152;2023-02-03T08:40:40;5.07;;;1.05;;
27408;SDS011;20413;50.782;7.152;2023-02-03T08:43:06;5.82;;;0.80;;
27408;SDS011;20413;50.782;7.152;2023-02-03T08:45:31;4.13;;;0.95;;
27408;SDS011;20413;50.782;7.152;2023-02-03T08:47:57;6.70;;;1.10;;
27408;SDS011;20413;50.782;7.152;2023-02-03T08:50:23;4.28;;;0.80;;
27408;SDS011;20413;50.782;7.152;2023-02-03T08:52:48;1.33;;;0.65;;
27408;SDS011;20413;50.782;7.152;2023-02-03T08:55:14;3.90;;;1.10;;
27408;SDS011;20413;50.782;7.152;2023-02-03T08:57:39;5.90;;;0.88;;
27408;SDS011;20413;50.782;7.152;2023-02-03T09:00:06;4.72;;;0.85;;
27408;SDS011;20413;50.782;7.152;2023-02-03T09:02:33;7.20;;;2.05;;
27408;SDS011;20413;50.782;7.152;2023-02-03T09:04:58;3.08;;;0.75;;
27408;SDS011;20413;50.782;7.152;2023-02-03T09:07:24;3.00;;;1.05;;
27408;SDS011;20413;50.782;7.152;2023-02-03T09:09:50;4.93;;;1.00;;
27408;SDS011;20413;50.782;7.152;2023-02-03T09:12:16;6.28;;;1.02;;
27408;SDS011;20413;50.782;7.152;2023-02-03T09:14:42;3.58;;;0.90;;
27408;SDS011;20413;50.782;7.152;2023-02-03T09:17:08;2.85;;;1.13;;
27408;SDS011;20413;50.782;7.152;2023-02-03T09:19:33;7.32;;;1.38;;
27408;SDS011;20413;50.782;7.152;2023-02-03T09:21:59;5.60;;;1.05;;
27408;SDS011;20413;50.782;7.152;2023-02-03T09:24:25;4.85;;;1.00;;
27408;SDS011;20413;50.782;7.152;2023-02-03T09:26:50;2.40;;;1.17;;
27408;SDS011;20413;50.782;7.152;2023-02-03T09:29:16;7.25;;;1.45;;
27408;SDS011;20413;50.782;7.152;2023-02-03T09:31:42;5.28;;;0.70;;
27408;SDS011;20413;50.782;7.152;2023-02-03T09:34:07;5.40;;;0.90;;
27408;SDS011;20413;50.782;7.152;2023-02-03T09:36:33;3.58;;;1.48;;
27408;SDS011;20413;50.782;7.152;2023-02-03T09:38:59;4.15;;;1.17;;
27408;SDS011;20413;50.782;7.152;2023-02-03T09:41:39;5.40;;;1.70;;
27408;SDS011;20413;50.782;7.152;2023-02-03T09:44:23;3.58;;;0.88;;
27408;SDS011;20413;50.782;7.152;2023-02-03T09:49:36;6.53;;;1.25;;
27408;SDS011;20413;50.782;7.152;2023-02-03T09:54:38;5.78;;;1.13;;
27408;SDS011;20413;50.782;7.152;2023-02-03T09:57:19;6.38;;;1.33;;
27408;SDS011;20413;50.782;7.152;2023-02-03T09:59:47;6.68;;;1.40;;
27408;SDS011;20413;50.782;7.152;2023-02-03T10:02:32;5.93;;;1.13;;
27408;SDS011;20413;50.782;7.152;2023-02-03T10:07:55;2.97;;;1.35;;
27408;SDS011;20413;50.782;7.152;2023-02-03T10:10:34;4.15;;;1.08;;
27408;SDS011;20413;50.782;7.152;2023-02-03T10:15:51;5.15;;;1.33;;
27408;SDS011;20413;50.782;7.152;2023-02-03T10:18:39;3.10;;;1.35;;
27408;SDS011;20413;50.782;7.152;2023-02-03T10:21:15;3.50;;;0.93;;
27408;SDS011;20413;50.782;7.152;2023-02-03T10:23:45;4.68;;;1.30;;
27408;SDS011;20413;50.782;7.152;2023-02-03T10:26:16;4.15;;;1.30;;
27408;SDS011;20413;50.782;7.152;2023-02-03T10:28:55;6.53;;;1.25;;
27408;SDS011;20413;50.782;7.152;2023-02-03T10:31:25;4.60;;;1.23;;
27408;SDS011;20413;50.782;7.152;2023-02-03T10:33:59;4.22;;;1.17;;
27408;SDS011;20413;50.782;7.152;2023-02-03T10:36:42;8.27;;;1.17;;
27408;SDS011;20413;50.782;7.152;2023-02-03T10:42:13;4.60;;;1.20;;
27408;SDS011;20413;50.782;7.152;2023-02-03T10:44:58;3.23;;;1.40;;
27408;SDS011;20413;50.782;7.152;2023-02-03T10:50:08;6.97;;;1.38;;
27408;SDS011;20413;50.782;7.152;2023-02-03T10:52:43;2.45;;;1.27;;
27408;SDS011;20413;50.782;7.152;2023-02-03T10:57:51;3.60;;;1.13;;
27408;SDS011;20413;50.782;7.152;2023-02-03T11:02:54;3.80;;;1.10;;
27408;SDS011;20413;50.782;7.152;2023-02-03T11:05:41;2.97;;;1.05;;
27408;SDS011;20413;50.782;7.152;2023-02-03T11:08:28;4.70;;;1.25;;
27408;SDS011;20413;50.782;7.152;2023-02-03T11:11:00;2.45;;;1.00;;
27408;SDS011;20413;50.782;7.152;2023-02-03T11:13:28;4.22;;;1.45;;
27408;SDS011;20413;50.782;7.152;2023-02-03T11:15:54;2.70;;;1.20;;
27408;SDS011;20413;50.782;7.152;2023-02-03T11:19:10;4.75;;;1.30;;
27408;SDS011;20413;50.782;7.152;2023-02-03T11:27:04;3.08;;;1.45;;
27408;SDS011;20413;50.782;7.152;2023-02-03T11:29:33;2.58;;;1.40;;
27408;SDS011;20413;50.782;7.152;2023-02-03T11:32:15;1.95;;;1.27;;
27408;SDS011;20413;50.782;7.152;2023-02-03T11:34:55;2.00;;;1.40;;
27408;SDS011;20413;50.782;7.152;2023-02-03T11:40:40;2.28;;;1.35;;
27408;SDS011;20413;50.782;7.152;2023-02-03T11:42:45;2.08;;;1.40;;
27408;SDS011;20413;50.782;7.152;2023-02-03T11:47:50;3.28;;;1.67;;
27408;SDS011;20413;50.782;7.152;2023-02-03T11:52:49;4.05;;;2.10;;
27408;SDS011;20413;50.782;7.152;2023-02-03T11:55:32;3.47;;;2.05;;
27408;SDS011;20413;50.782;7.152;2023-02-03T12:00:40;3.35;;;2.25;;
27408;SDS011;20413;50.782;7.152;2023-02-03T12:06:00;3.88;;;2.28;;
27408;SDS011;20413;50.782;7.152;2023-02-03T12:16:11;6.70;;;2.60;;
27408;SDS011;20413;50.782;7.152;2023-02-03T12:24:11;7.38;;;3.20;;
27408;SDS011;20413;50.782;7.152;2023-02-03T12:29:13;6.55;;;3.30;;
27408;SDS011;20413;50.782;7.152;2023-02-03T12:31:59;9.48;;;3.63;;
27408;SDS011;20413;50.782;7.152;2023-02-03T12:34:46;7.95;;;3.33;;
27408;SDS011;20413;50.782;7.152;2023-02-03T12:37:18;5.47;;;4.00;;
27408;SDS011;20413;50.782;7.152;2023-02-03T12:40:00;8.82;;;4.00;;
27408;SDS011;20413;50.782;7.152;2023-02-03T12:42:38;5.05;;;4.07;;
27408;SDS011;20413;50.782;7.152;2023-02-03T12:47:38;6.13;;;4.43;;
27408;SDS011;20413;50.782;7.152;2023-02-03T12:50:06;10.52;;;4.55;;
27408;SDS011;20413;50.782;7.152;2023-02-03T12:52:42;8.20;;;3.90;;
27408;SDS011;20413;50.782;7.152;2023-02-03T12:55:31;9.32;;;4.82;;
27408;SDS011;20413;50.782;7.152;2023-02-03T12:58:12;6.50;;;4.57;;
27408;SDS011;20413;50.782;7.152;2023-02-03T13:03:12;8.65;;;5.00;;
27408;SDS011;20413;50.782;7.152;2023-02-03T13:11:23;9.40;;;4.78;;
27408;SDS011;20413;50.782;7.152;2023-02-03T13:13:53;5.22;;;4.72;;
27408;SDS011;20413;50.782;7.152;2023-02-03T13:18:48;10.52;;;5.50;;
27408;SDS011;20413;50.782;7.152;2023-02-03T13:21:17;8.05;;;4.93;;
27408;SDS011;20413;50.782;7.152;2023-02-03T13:23:43;7.70;;;5.72;;
27408;SDS011;20413;50.782;7.152;2023-02-03T13:37:11;13.88;;;7.75;;
27408;SDS011;20413;50.782;7.152;2023-02-03T13:42:20;10.70;;;6.20;;
27408;SDS011;20413;50.782;7.152;2023-02-03T13:44:49;16.50;;;7.47;;
27408;SDS011;20413;50.782;7.152;2023-02-03T13:47:36;13.35;;;7.25;;
27408;SDS011;20413;50.782;7.152;2023-02-03T13:50:05;11.90;;;7.28;;
27408;SDS011;20413;50.782;7.152;2023-02-03T13:52:36;16.38;;;8.02;;
27408;SDS011;20413;50.782;7.152;2023-02-03T13:55:03;13.35;;;8.07;;
27408;SDS011;20413;50.782;7.152;2023-02-03T13:57:33;11.32;;;8.38;;
27408;SDS011;20413;50.782;7.152;2023-02-03T14:00:01;16.05;;;8.43;;
27408;SDS011;20413;50.782;7.152;2023-02-03T14:04:55;23.08;;;8.93;;
27408;SDS011;20413;50.782;7.152;2023-02-03T14:07:37;13.23;;;9.35;;
27408;SDS011;20413;50.782;7.152;2023-02-03T14:25:16;14.23;;;9.02;;
27408;SDS011;20413;50.782;7.152;2023-02-03T14:27:43;14.38;;;9.27;;
27408;SDS011;20413;50.782;7.152;2023-02-03T14:30:10;16.85;;;9.68;;
27408;SDS011;20413;50.782;7.152;2023-02-03T14:32:50;22.40;;;10.52;;
27408;SDS011;20413;50.782;7.152;2023-02-03T14:35:17;18.90;;;10.00;;
27408;SDS011;20413;50.782;7.152;2023-02-03T14:37:53;15.93;;;10.50;;
27408;SDS011;20413;50.782;7.152;2023-02-03T14:40:27;15.15;;;10.38;;
27408;SDS011;20413;50.782;7.152;2023-02-03T14:50:51;19.60;;;10.75;;
27408;SDS011;20413;50.782;7.152;2023-02-03T14:53:37;17.45;;;10.02;;
27408;SDS011;20413;50.782;7.152;2023-02-03T14:56:15;17.33;;;10.85;;
27408;SDS011;20413;50.782;7.152;2023-02-03T14:58:44;15.82;;;10.10;;
27408;SDS011;20413;50.782;7.152;2023-02-03T15:06:40;15.10;;;10.45;;
27408;SDS011;20413;50.782;7.152;2023-02-03T15:11:42;19.17;;;9.80;;
27408;SDS011;20413;50.782;7.152;2023-02-03T15:14:13;15.00;;;10.18;;
27408;SDS011;20413;50.782;7.152;2023-02-03T15:16:40;16.15;;;10.85;;
27408;SDS011;20413;50.782;7.152;2023-02-03T15:19:15;19.02;;;9.93;;
27408;SDS011;20413;50.782;7.152;2023-02-03T15:21:41;14.50;;;10.27;;
27408;SDS011;20413;50.782;7.152;2023-02-03T15:24:15;12.27;;;9.32;;
27408;SDS011;20413;50.782;7.152;2023-02-03T15:26:47;17.13;;;10.07;;
27408;SDS011;20413;50.782;7.152;2023-02-03T15:29:25;15.52;;;9.65;;
27408;SDS011;20413;50.782;7.152;2023-02-03T15:31:53;15.35;;;9.75;;
27408;SDS011;20413;50.782;7.152;2023-02-03T15:36:46;17.02;;;9.75;;
27408;SDS011;20413;50.782;7.152;2023-02-03T15:41:43;12.95;;;9.38;;
27408;SDS011;20413;50.782;7.152;2023-02-03T15:44:53;15.52;;;9.38;;
27408;SDS011;20413;50.782;7.152;2023-02-03T15:46:59;13.55;;;9.18;;
27408;SDS011;20413;50.782;7.152;2023-02-03T15:49:28;16.20;;;9.57;;
27408;SDS011;20413;50.782;7.152;2023-02-03T15:52:16;15.73;;;8.98;;
27408;SDS011;20413;50.782;7.152;2023-02-03T15:54:44;16.42;;;8.63;;
27408;SDS011;20413;50.782;7.152;2023-02-03T15:57:19;15.70;;;9.15;;
27408;SDS011;20413;50.782;7.152;2023-02-03T16:02:40;15.52;;;8.00;;
27408;SDS011;20413;50.782;7.152;2023-02-03T16:05:24;17.35;;;9.35;;
27408;SDS011;20413;50.782;7.152;2023-02-03T16:07:51;12.55;;;8.15;;
27408;SDS011;20413;50.782;7.152;2023-02-03T16:10:30;14.48;;;8.40;;
27408;SDS011;20413;50.782;7.152;2023-02-03T16:13:41;9.45;;;7.72;;
27408;SDS011;20413;50.782;7.152;2023-02-03T16:15:59;15.57;;;8.73;;
27408;SDS011;20413;50.782;7.152;2023-02-03T16:18:26;14.75;;;8.63;;
27408;SDS011;20413;50.782;7.152;2023-02-03T16:20:52;13.25;;;9.48;;
27408;SDS011;20413;50.782;7.152;2023-02-03T16:23:22;13.88;;;8.80;;
27408;SDS011;20413;50.782;7.152;2023-02-03T16:31:42;11.50;;;9.05;;
27408;SDS011;20413;50.782;7.152;2023-02-03T16:34:28;13.23;;;9.85;;
27408;SDS011;20413;50.782;7.152;2023-02-03T16:37:15;13.73;;;8.73;;
27408;SDS011;20413;50.782;7.152;2023-02-03T16:40:04;12.23;;;8.63;;
27408;SDS011;20413;50.782;7.152;2023-02-03T16:42:48;17.50;;;9.85;;
27408;SDS011;20413;50.782;7.152;2023-02-03T16:45:33;13.10;;;9.27;;
27408;SDS011;20413;50.782;7.152;2023-02-03T16:48:18;22.10;;;10.13;;
27408;SDS011;20413;50.782;7.152;2023-02-03T16:51:03;19.63;;;10.10;;
27408;SDS011;20413;50.782;7.152;2023-02-03T16:53:30;17.90;;;10.93;;
27408;SDS011;20413;50.782;7.152;2023-02-03T16:55:58;21.48;;;12.10;;
27408;SDS011;20413;50.782;7.152;2023-02-03T16:58:24;22.42;;;12.32;;
27408;SDS011;20413;50.782;7.152;2023-02-03T17:00:51;19.70;;;12.30;;
27408;SDS011;20413;50.782;7.152;2023-02-03T17:03:19;20.23;;;11.65;;
27408;SDS011;20413;50.782;7.152;2023-02-03T17:05:45;20.77;;;9.05;;
27408;SDS011;20413;50.782;7.152;2023-02-03T17:08:12;18.27;;;8.75;;
27408;SDS011;20413;50.782;7.152;2023-02-03T17:10:39;14.80;;;7.57;;
27408;SDS011;20413;50.782;7.152;2023-02-03T17:13:05;18.85;;;7.60;;
27408;SDS011;20413;50.782;7.152;2023-02-03T17:15:47;16.33;;;7.45;;
27408;SDS011;20413;50.782;7.152;2023-02-03T17:18:13;16.60;;;5.72;;
27408;SDS011;20413;50.782;7.152;2023-02-03T17:20:40;18.00;;;6.25;;
27408;SDS011;20413;50.782;7.152;2023-02-03T17:23:07;21.20;;;5.93;;
27408;SDS011;20413;50.782;7.152;2023-02-03T17:25:33;20.17;;;5.18;;
27408;SDS011;20413;50.782;7.152;2023-02-03T17:28:03;16.17;;;4.47;;
27408;SDS011;20413;50.782;7.152;2023-02-03T17:30:29;15.57;;;5.43;;
27408;SDS011;20413;50.782;7.152;2023-02-03T17:33:03;17.00;;;5.65;;
27408;SDS011;20413;50.782;7.152;2023-02-03T17:35:36;20.25;;;5.38;;